Time;durP1;ratioP1;P1;durP2;ratioP2;P2;SDS_P1;SDS_P2;PMS_P1;PMS_P2;Temp;Humidity;BMP_temperature;BMP_pressure;BME280_temperature;BME280_humidity;BME280_pressure;Samples;Min_cycle;Max_cycle;Signal;HPM_P1;HPM_P2
2023/08/12 00:00:20;;;;;;;9.70;5.20;;;21.70;99.90;;;;;;5094943;28;20069;-81
2023/08/12 00:02:46;;;;;;;9.25;4.82;;;21.70;99.90;;;;;;5075071;28;20028;-81
2023/08/12 00:05:13;;;;;;;4.38;3.55;;;21.60;99.90;;;;;;5079246;28;20329;-80
2023/08/12 00:07:42;;;;;;;7.60;4.22;;;21.60;99.90;;;;;;5084417;28;20032;-81
2023/08/12 00:10:09;;;;;;;8.32;4.60;;;21.60;99.90;;;;;;5100924;28;20417;-81
2023/08/12 00:12:35;;;;;;;5.30;3.83;;;21.50;99.90;;;;;;5097997;28;20044;-81
2023/08/12 00:15:02;;;;;;;5.15;3.72;;;21.70;99.90;;;;;;5101711;28;20039;-80
2023/08/12 00:17:28;;;;;;;7.65;4.15;;;21.50;99.90;;;;;;5098089;28;20093;-81
2023/08/12 00:19:54;;;;;;;8.05;4.85;;;21.70;99.90;;;;;;5065620;28;20032;-81
2023/08/12 00:22:20;;;;;;;7.65;4.88;;;21.60;99.90;;;;;;5064825;28;20034;-81
2023/08/12 00:24:45;;;;;;;6.88;4.10;;;21.60;99.90;;;;;;5084245;28;20031;-81
2023/08/12 00:27:11;;;;;;;8.40;4.70;;;21.40;99.90;;;;;;5073572;28;20054;-81
2023/08/12 00:29:37;;;;;;;8.48;4.72;;;21.40;99.90;;;;;;5084204;28;20310;-81
2023/08/12 00:32:03;;;;;;;8.75;4.00;;;21.40;99.90;;;;;;5085014;28;20194;-81
2023/08/12 00:34:29;;;;;;;5.35;3.53;;;21.40;99.90;;;;;;5098047;28;20182;-81
2023/08/12 00:36:54;;;;;;;6.35;3.75;;;21.50;99.90;;;;;;5094649;28;20095;-81
2023/08/12 00:39:20;;;;;;;7.32;3.75;;;21.50;99.90;;;;;;5082738;28;20080;-81
2023/08/12 00:41:46;;;;;;;7.63;3.53;;;21.40;99.90;;;;;;5082543;28;20023;-80
2023/08/12 00:44:12;;;;;;;6.05;3.70;;;21.50;99.90;;;;;;5066542;28;20104;-81
2023/08/12 00:46:39;;;;;;;5.75;3.35;;;21.40;99.90;;;;;;5103264;28;20235;-80
2023/08/12 00:49:05;;;;;;;4.72;3.67;;;21.40;99.90;;;;;;5103534;28;20039;-81
2023/08/12 00:51:31;;;;;;;6.07;4.20;;;21.30;99.90;;;;;;5080175;28;20031;-81
2023/08/12 00:54:04;;;;;;;4.68;3.17;;;21.50;99.90;;;;;;5067108;28;20063;-80
2023/08/12 00:56:31;;;;;;;5.05;3.70;;;21.30;99.90;;;;;;5083251;28;20420;-81
2023/08/12 00:58:59;;;;;;;8.07;3.50;;;21.40;99.90;;;;;;5087844;28;20055;-82
2023/08/12 01:01:26;;;;;;;4.15;3.35;;;21.40;99.90;;;;;;5084378;28;20062;-80
2023/08/12 01:03:52;;;;;;;7.70;4.28;;;21.30;99.90;;;;;;5085063;28;20035;-81
2023/08/12 01:06:18;;;;;;;9.55;4.30;;;21.30;99.90;;;;;;5084390;28;20024;-81
2023/08/12 01:08:44;;;;;;;7.55;4.43;;;21.40;99.90;;;;;;5084434;28;20067;-81
2023/08/12 01:11:33;;;;;;;6.78;3.60;;;21.30;99.90;;;;;;5087516;28;20059;-81
2023/08/12 01:14:27;;;;;;;4.13;3.20;;;21.40;99.90;;;;;;5088245;28;20219;-81
2023/08/12 01:17:06;;;;;;;6.72;3.42;;;21.30;99.90;;;;;;5088339;28;20041;-82
2023/08/12 01:19:37;;;;;;;4.53;3.17;;;21.50;99.90;;;;;;5088955;28;20058;-82
2023/08/12 01:22:04;;;;;;;5.90;3.95;;;21.20;99.90;;;;;;5087485;28;20031;-82
2023/08/12 01:24:41;;;;;;;3.38;2.97;;;21.30;99.90;;;;;;5087392;28;20038;-82
2023/08/12 01:27:08;;;;;;;4.90;3.60;;;21.20;99.90;;;;;;5083768;28;20031;-81
2023/08/12 01:29:36;;;;;;;3.35;2.88;;;21.30;99.90;;;;;;5081918;28;20028;-83
2023/08/12 01:32:18;;;;;;;5.65;3.60;;;21.30;99.90;;;;;;5085862;28;20278;-82
2023/08/12 01:35:25;;;;;;;5.07;3.30;;;21.30;99.90;;;;;;5081657;28;20345;-82
2023/08/12 01:37:53;;;;;;;5.05;3.60;;;21.50;99.90;;;;;;5079269;28;20318;-81
2023/08/12 01:40:19;;;;;;;6.30;3.33;;;21.30;99.90;;;;;;5083500;28;20102;-83
2023/08/12 01:42:46;;;;;;;4.90;3.40;;;21.40;99.90;;;;;;5103704;28;20039;-82
2023/08/12 01:45:12;;;;;;;7.22;3.60;;;21.40;99.90;;;;;;5085447;28;20038;-82
2023/08/12 01:47:38;;;;;;;5.78;3.70;;;21.40;99.90;;;;;;5101859;28;20240;-82
2023/08/12 01:50:04;;;;;;;4.88;3.80;;;21.40;99.90;;;;;;5085084;28;20050;-82
2023/08/12 01:52:30;;;;;;;4.82;3.63;;;21.40;99.90;;;;;;5066123;28;20318;-81
2023/08/12 01:54:56;;;;;;;5.90;3.38;;;21.40;99.90;;;;;;5080113;28;20055;-82
2023/08/12 01:57:21;;;;;;;4.40;3.30;;;21.40;99.90;;;;;;5079748;28;20091;-81
2023/08/12 01:59:47;;;;;;;5.68;3.50;;;21.20;99.90;;;;;;5082695;28;20063;-81
2023/08/12 02:02:13;;;;;;;4.30;3.45;;;21.40;99.90;;;;;;5047050;28;20098;-75
2023/08/12 02:04:40;;;;;;;5.65;3.47;;;21.20;99.90;;;;;;5080842;28;20046;-82
2023/08/12 02:07:05;;;;;;;7.82;3.95;;;23.10;99.90;;;;;;5092969;28;20077;-80
2023/08/12 02:09:31;;;;;;;4.18;3.05;;;21.30;99.90;;;;;;5091313;28;20070;-81
2023/08/12 02:11:57;;;;;;;4.95;3.33;;;21.30;99.90;;;;;;5065688;28;20098;-80
2023/08/12 02:14:23;;;;;;;5.35;3.33;;;21.20;99.90;;;;;;5081296;28;20035;-80
2023/08/12 02:16:49;;;;;;;5.30;3.28;;;21.30;99.90;;;;;;5096374;28;20223;-80
2023/08/12 02:19:15;;;;;;;8.32;4.10;;;21.30;99.90;;;;;;5050623;28;20033;-80
2023/08/12 02:21:42;;;;;;;5.90;3.38;;;21.20;99.90;;;;;;5090118;28;20099;-80
2023/08/12 02:24:08;;;;;;;5.80;3.80;;;21.20;99.90;;;;;;5081827;28;20046;-80
2023/08/12 02:26:34;;;;;;;5.15;4.13;;;21.10;99.90;;;;;;5081626;28;20242;-81
2023/08/12 02:29:00;;;;;;;6.45;4.18;;;21.00;99.90;;;;;;5050157;28;20054;-82
2023/08/12 02:31:26;;;;;;;6.13;3.83;;;21.10;99.90;;;;;;5084974;28;20213;-82
2023/08/12 02:33:51;;;;;;;5.22;4.10;;;21.00;99.90;;;;;;5082697;28;20028;-82
2023/08/12 02:36:17;;;;;;;6.60;4.18;;;21.10;99.90;;;;;;5083669;28;20035;-81
2023/08/12 02:38:43;;;;;;;6.43;3.97;;;21.20;99.90;;;;;;5068359;28;20419;-81
2023/08/12 02:41:09;;;;;;;6.35;3.95;;;21.10;99.90;;;;;;5102908;28;20038;-82
2023/08/12 02:43:35;;;;;;;8.00;4.57;;;20.90;99.90;;;;;;5080053;28;20036;-81
2023/08/12 02:46:00;;;;;;;5.53;4.18;;;21.10;99.90;;;;;;5103257;28;20027;-81
2023/08/12 02:48:26;;;;;;;8.07;4.35;;;21.20;99.90;;;;;;5067589;28;20031;-79
2023/08/12 02:50:52;;;;;;;5.93;4.38;;;21.10;99.90;;;;;;5069931;28;20412;-82
2023/08/12 02:53:17;;;;;;;6.47;4.13;;;20.90;99.90;;;;;;5060871;28;20032;-81
2023/08/12 02:55:45;;;;;;;5.70;4.25;;;21.10;99.90;;;;;;5088235;28;20028;-81
2023/08/12 02:58:11;;;;;;;9.60;4.85;;;21.00;99.90;;;;;;5103491;28;20036;-80
2023/08/12 03:00:36;;;;;;;9.43;4.93;;;21.20;99.90;;;;;;5100902;28;20043;-80
2023/08/12 03:03:04;;;;;;;7.05;4.93;;;21.10;99.90;;;;;;5100505;28;20054;-80
2023/08/12 03:05:31;;;;;;;6.55;4.85;;;21.20;99.90;;;;;;5066144;28;20333;-79
2023/08/12 03:07:57;;;;;;;5.85;5.07;;;21.20;99.90;;;;;;5069522;28;20053;-80
2023/08/12 03:10:23;;;;;;;8.57;5.57;;;21.10;99.90;;;;;;5075485;28;20103;-80
2023/08/12 03:12:48;;;;;;;6.32;5.13;;;21.10;99.90;;;;;;5097106;28;20055;-80
2023/08/12 03:15:14;;;;;;;6.82;5.38;;;21.10;99.90;;;;;;5068812;28;20027;-80
2023/08/12 03:17:41;;;;;;;8.55;5.45;;;21.20;99.90;;;;;;5078591;28;20051;-80
2023/08/12 03:20:08;;;;;;;6.60;4.82;;;21.30;99.90;;;;;;5083309;28;20032;-81
2023/08/12 03:22:35;;;;;;;7.93;5.40;;;21.30;99.90;;;;;;5083026;28;20019;-82
2023/08/12 03:25:01;;;;;;;8.07;5.50;;;21.20;99.90;;;;;;5078378;28;20043;-82
2023/08/12 03:27:27;;;;;;;7.20;5.10;;;21.10;99.90;;;;;;5059148;28;20016;-82
2023/08/12 03:29:53;;;;;;;9.18;5.03;;;21.00;99.90;;;;;;5066210;28;20530;-80
2023/08/12 03:32:18;;;;;;;6.95;4.93;;;21.00;99.90;;;;;;5054149;28;20086;-80
2023/08/12 03:34:44;;;;;;;7.63;5.18;;;21.20;99.90;;;;;;5089346;28;20088;-80
2023/08/12 03:37:10;;;;;;;8.02;5.40;;;21.00;99.90;;;;;;5094606;28;20468;-80
2023/08/12 03:39:36;;;;;;;8.73;6.68;;;20.90;99.90;;;;;;5101471;28;20054;-80
2023/08/12 03:42:01;;;;;;;11.82;6.15;;;21.20;99.90;;;;;;5081358;28;20106;-80
2023/08/12 03:44:27;;;;;;;10.07;6.32;;;20.90;99.90;;;;;;5079160;28;20039;-80
2023/08/12 03:46:53;;;;;;;10.25;6.20;;;21.00;99.90;;;;;;5065678;28;20035;-80
2023/08/12 03:49:18;;;;;;;7.75;6.22;;;20.90;99.90;;;;;;5060493;28;20215;-80
2023/08/12 03:51:44;;;;;;;8.10;6.35;;;20.90;99.90;;;;;;5053048;28;20081;-81
2023/08/12 03:54:10;;;;;;;8.20;6.63;;;21.20;99.90;;;;;;5081636;28;20055;-80
2023/08/12 03:56:35;;;;;;;8.75;5.93;;;21.00;99.90;;;;;;5085324;28;20102;-80
2023/08/12 03:59:01;;;;;;;8.35;5.80;;;21.10;99.90;;;;;;5038845;28;20034;-80
2023/08/12 04:01:27;;;;;;;9.88;5.80;;;21.00;99.90;;;;;;5059875;28;20235;-81
2023/08/12 04:03:55;;;;;;;9.07;7.03;;;21.20;99.90;;;;;;5076833;28;20340;-81
2023/08/12 04:06:21;;;;;;;7.70;6.18;;;21.10;99.90;;;;;;5074802;28;20035;-80
2023/08/12 04:08:47;;;;;;;11.60;6.40;;;21.20;99.90;;;;;;5082357;28;20101;-81
2023/08/12 04:11:12;;;;;;;10.38;6.65;;;21.20;99.90;;;;;;5067789;28;20039;-82
2023/08/12 04:13:38;;;;;;;11.32;6.40;;;21.00;99.90;;;;;;5047196;28;20028;-81
2023/08/12 04:16:04;;;;;;;10.65;6.90;;;21.10;99.90;;;;;;5098972;28;20050;-81
2023/08/12 04:18:29;;;;;;;8.27;6.28;;;21.20;99.90;;;;;;5066555;28;20466;-82
2023/08/12 04:20:55;;;;;;;10.05;6.15;;;21.00;99.90;;;;;;5065971;28;20080;-81
2023/08/12 04:23:21;;;;;;;12.95;7.32;;;21.10;99.90;;;;;;5071940;28;20094;-81
2023/08/12 04:25:48;;;;;;;9.07;6.57;;;21.00;99.90;;;;;;5068911;28;20028;-82
2023/08/12 04:28:15;;;;;;;12.10;7.82;;;21.10;99.90;;;;;;5087190;28;20210;-81
2023/08/12 04:30:47;;;;;;;9.70;8.18;;;21.40;99.90;;;;;;5087452;28;20023;-81
2023/08/12 04:33:14;;;;;;;9.88;7.40;;;21.10;99.90;;;;;;5104187;28;20340;-81
2023/08/12 04:35:43;;;;;;;9.13;7.20;;;21.30;99.90;;;;;;5067485;28;20070;-81
2023/08/12 04:38:09;;;;;;;9.77;7.35;;;21.20;99.90;;;;;;5064267;28;20077;-81
2023/08/12 04:40:38;;;;;;;12.63;8.18;;;21.40;99.90;;;;;;5084325;28;20102;-82
2023/08/12 04:43:03;;;;;;;16.90;9.02;;;21.20;99.90;;;;;;5083464;28;20032;-82
2023/08/12 04:45:29;;;;;;;13.48;7.97;;;21.10;99.90;;;;;;5060721;28;20016;-81
2023/08/12 04:47:57;;;;;;;13.35;8.73;;;21.50;99.90;;;;;;5085855;28;20111;-82
2023/08/12 04:50:23;;;;;;;12.82;8.20;;;21.50;99.90;;;;;;5079908;28;20043;-81
2023/08/12 04:52:48;;;;;;;13.25;8.50;;;21.20;99.90;;;;;;5052418;28;20146;-82
2023/08/12 04:55:14;;;;;;;12.43;8.27;;;21.50;99.90;;;;;;5067767;28;20090;-82
2023/08/12 04:57:40;;;;;;;10.85;8.15;;;21.40;99.90;;;;;;5103101;28;20094;-80
2023/08/12 05:00:09;;;;;;;11.13;8.05;;;21.40;99.90;;;;;;5095171;28;20027;-81
2023/08/12 05:02:35;;;;;;;11.45;7.60;;;21.60;99.90;;;;;;5078658;28;20047;-81
2023/08/12 05:05:01;;;;;;;12.50;8.68;;;21.30;99.90;;;;;;5080144;28;20447;-81
2023/08/12 05:07:27;;;;;;;14.50;9.38;;;21.30;99.90;;;;;;5087680;28;20027;-81
2023/08/12 05:09:53;;;;;;;11.05;8.45;;;21.60;99.90;;;;;;5063026;28;20302;-81
2023/08/12 05:12:18;;;;;;;15.15;9.90;;;21.50;99.90;;;;;;5085795;28;20049;-82
2023/08/12 05:14:44;;;;;;;11.20;8.38;;;21.50;99.90;;;;;;5086449;28;20067;-81
2023/08/12 05:17:10;;;;;;;12.25;8.27;;;21.40;99.90;;;;;;5081815;28;20035;-81
2023/08/12 05:19:35;;;;;;;11.45;8.10;;;21.50;99.90;;;;;;5068589;28;20039;-81
2023/08/12 05:22:01;;;;;;;10.73;8.32;;;21.30;99.90;;;;;;5095828;28;20031;-81
2023/08/12 05:24:27;;;;;;;11.95;9.07;;;21.60;99.90;;;;;;5048212;28;20498;-81
2023/08/12 05:26:52;;;;;;;13.05;8.68;;;21.40;99.90;;;;;;5067642;28;20338;-81
2023/08/12 05:29:18;;;;;;;12.02;7.43;;;21.70;99.90;;;;;;5062427;28;20031;-81
2023/08/12 05:31:44;;;;;;;10.85;7.80;;;21.50;99.90;;;;;;5070466;28;20055;-81
2023/08/12 05:34:09;;;;;;;10.98;7.70;;;21.60;99.90;;;;;;5070299;28;20051;-81
2023/08/12 05:36:36;;;;;;;9.40;7.55;;;21.80;99.90;;;;;;5059604;28;20368;-81
2023/08/12 05:39:03;;;;;;;9.98;7.25;;;21.80;99.90;;;;;;5093068;28;20035;-81
2023/08/12 05:41:29;;;;;;;12.50;8.07;;;22.20;99.90;;;;;;5081434;28;20103;-81
2023/08/12 05:43:54;;;;;;;12.50;8.10;;;22.10;99.90;;;;;;5076224;28;20368;-80
2023/08/12 05:46:20;;;;;;;11.15;8.57;;;22.00;99.90;;;;;;5083875;28;20313;-81
2023/08/12 05:48:46;;;;;;;10.18;7.63;;;22.20;99.90;;;;;;5083093;28;20036;-82
2023/08/12 05:51:11;;;;;;;11.25;8.35;;;22.20;99.90;;;;;;5065027;28;20103;-82
2023/08/12 05:53:38;;;;;;;14.07;8.88;;;22.40;99.90;;;;;;5078968;28;20035;-82
2023/08/12 05:56:03;;;;;;;9.25;7.30;;;22.10;99.90;;;;;;5085630;28;20039;-83
2023/08/12 05:58:29;;;;;;;10.43;8.13;;;22.50;99.90;;;;;;5089428;28;20421;-82
2023/08/12 06:00:55;;;;;;;12.13;7.65;;;22.40;99.90;;;;;;5066812;28;20059;-82
2023/08/12 06:03:21;;;;;;;9.88;7.43;;;22.20;99.90;;;;;;5100446;28;20040;-77
2023/08/12 06:05:47;;;;;;;9.18;6.78;;;22.20;99.90;;;;;;5092277;28;20032;-80
2023/08/12 06:08:14;;;;;;;11.05;7.43;;;22.60;99.90;;;;;;5064091;28;20255;-80
2023/08/12 06:10:41;;;;;;;9.02;6.80;;;22.60;99.90;;;;;;5088042;28;20047;-79
2023/08/12 06:13:06;;;;;;;10.55;7.78;;;22.40;99.90;;;;;;5070749;28;20264;-81
2023/08/12 06:15:36;;;;;;;11.85;7.45;;;22.60;99.90;;;;;;5085821;28;20091;-80
2023/08/12 06:18:02;;;;;;;8.77;6.53;;;22.60;99.90;;;;;;5087418;28;20354;-81
2023/08/12 06:20:28;;;;;;;10.82;7.15;;;22.80;99.90;;;;;;5082557;28;20050;-82
2023/08/12 06:22:54;;;;;;;9.57;7.38;;;22.60;99.90;;;;;;5064306;28;20063;-81
2023/08/12 06:25:20;;;;;;;9.40;7.10;;;22.90;99.90;;;;;;5068037;28;20063;-82
2023/08/12 06:27:47;;;;;;;8.50;6.82;;;22.60;99.90;;;;;;5068285;28;20039;-81
2023/08/12 06:30:14;;;;;;;10.45;7.68;;;22.50;99.90;;;;;;5082279;28;20032;-82
2023/08/12 06:32:40;;;;;;;9.35;7.13;;;22.70;99.90;;;;;;5080017;28;20303;-81
2023/08/12 06:35:06;;;;;;;10.88;7.53;;;22.90;99.90;;;;;;5069352;28;20051;-80
2023/08/12 06:37:32;;;;;;;11.75;8.18;;;22.90;99.90;;;;;;5096741;28;20031;-80
2023/08/12 06:39:58;;;;;;;11.77;7.32;;;22.70;99.90;;;;;;5066151;28;20020;-79
2023/08/12 06:42:24;;;;;;;9.30;6.25;;;22.90;99.90;;;;;;5064973;28;20434;-80
2023/08/12 06:45:00;;;;;;;10.02;7.15;;;22.80;99.90;;;;;;5092903;28;20098;-81
2023/08/12 06:47:27;;;;;;;9.25;7.00;;;22.70;99.90;;;;;;5081432;28;20327;-81
2023/08/12 06:49:53;;;;;;;10.88;7.35;;;22.70;99.90;;;;;;5084017;28;20071;-82
2023/08/12 06:52:19;;;;;;;12.77;7.22;;;22.70;99.90;;;;;;5083867;28;20016;-81
2023/08/12 06:54:45;;;;;;;8.50;6.20;;;22.80;99.90;;;;;;5087848;28;20110;-80
2023/08/12 06:57:24;;;;;;;10.40;7.78;;;22.80;99.90;;;;;;5056977;28;20074;-81
2023/08/12 06:59:50;;;;;;;11.70;7.80;;;22.90;99.90;;;;;;5050268;28;20036;-80
2023/08/12 07:02:16;;;;;;;10.85;7.63;;;22.70;99.90;;;;;;5041967;28;20211;-81
2023/08/12 07:04:42;;;;;;;13.35;7.65;;;23.10;99.90;;;;;;5034709;28;20230;-81
2023/08/12 07:07:07;;;;;;;11.18;7.38;;;22.90;99.90;;;;;;5067226;28;20032;-79
2023/08/12 07:09:33;;;;;;;8.45;7.18;;;23.10;99.90;;;;;;5066644;28;20075;-83
2023/08/12 07:12:00;;;;;;;11.45;7.63;;;23.10;99.90;;;;;;5054714;28;20027;-81
2023/08/12 07:14:26;;;;;;;12.98;8.18;;;22.90;99.90;;;;;;5078770;28;20054;-81
2023/08/12 07:16:53;;;;;;;9.48;7.15;;;23.10;99.90;;;;;;5087112;28;20370;-84
2023/08/12 07:19:19;;;;;;;10.23;7.22;;;22.80;99.90;;;;;;5100877;28;20099;-81
2023/08/12 07:21:44;;;;;;;10.82;7.95;;;23.20;99.90;;;;;;5081664;28;20031;-81
2023/08/12 07:24:10;;;;;;;9.52;7.30;;;22.80;99.90;;;;;;5083277;28;20031;-81
2023/08/12 07:26:36;;;;;;;13.60;8.43;;;22.80;99.90;;;;;;5102311;28;20027;-80
2023/08/12 07:29:01;;;;;;;13.00;7.43;;;23.00;99.90;;;;;;5101256;28;20106;-78
2023/08/12 07:31:27;;;;;;;10.93;7.97;;;23.20;99.90;;;;;;5093923;28;20059;-77
2023/08/12 07:33:53;;;;;;;10.52;7.45;;;23.30;99.90;;;;;;5069378;28;20321;-78
2023/08/12 07:36:18;;;;;;;13.75;8.30;;;23.20;99.90;;;;;;5078578;28;20031;-78
2023/08/12 07:38:44;;;;;;;11.85;7.88;;;23.30;99.90;;;;;;5102816;28;20125;-79
2023/08/12 07:41:10;;;;;;;8.20;7.32;;;23.30;99.90;;;;;;5069488;28;20092;-78
2023/08/12 07:43:35;;;;;;;15.73;9.57;;;23.40;99.90;;;;;;5084963;28;20043;-78
2023/08/12 07:46:01;;;;;;;11.35;8.02;;;23.50;99.90;;;;;;5086360;28;20035;-77
2023/08/12 07:48:27;;;;;;;12.57;8.85;;;23.50;99.90;;;;;;5083204;28;20156;-78
2023/08/12 07:50:59;;;;;;;9.40;7.72;;;23.30;99.90;;;;;;5053089;28;20135;-79
2023/08/12 07:53:25;;;;;;;14.00;9.20;;;23.20;99.90;;;;;;5099639;28;20035;-77
2023/08/12 07:55:51;;;;;;;14.95;9.98;;;23.20;99.90;;;;;;5103235;28;20027;-78
2023/08/12 07:58:18;;;;;;;15.27;9.73;;;23.50;99.90;;;;;;5083062;28;20092;-78
2023/08/12 08:00:43;;;;;;;11.85;8.98;;;23.20;99.90;;;;;;5101564;28;20066;-77
2023/08/12 08:03:09;;;;;;;11.77;7.95;;;23.40;99.90;;;;;;5083478;28;20062;-80
2023/08/12 08:05:35;;;;;;;15.90;10.45;;;23.60;99.90;;;;;;5082630;28;20049;-80
2023/08/12 08:08:00;;;;;;;14.68;9.75;;;23.50;99.90;;;;;;5062411;28;20031;-80
2023/08/12 08:10:26;;;;;;;12.63;9.63;;;23.50;99.90;;;;;;5080662;28;20060;-80
2023/08/12 08:12:52;;;;;;;14.05;10.00;;;23.70;99.90;;;;;;5059468;28;20028;-79
2023/08/12 08:15:18;;;;;;;12.27;10.00;;;23.60;99.90;;;;;;5057542;28;20040;-80
2023/08/12 08:17:43;;;;;;;13.20;9.68;;;23.60;99.90;;;;;;5060531;28;20307;-80
2023/08/12 08:20:10;;;;;;;15.25;9.52;;;23.40;99.90;;;;;;5059687;28;20035;-80
2023/08/12 08:22:36;;;;;;;18.60;11.38;;;23.70;99.90;;;;;;5045774;28;20306;-80
2023/08/12 08:25:02;;;;;;;15.02;9.68;;;23.80;99.90;;;;;;5052440;28;20100;-80
2023/08/12 08:27:27;;;;;;;17.20;11.07;;;23.70;99.90;;;;;;5062143;28;20315;-80
2023/08/12 08:29:53;;;;;;;14.65;11.15;;;23.70;99.90;;;;;;5043894;28;20096;-80
2023/08/12 08:32:19;;;;;;;15.52;10.60;;;23.60;99.90;;;;;;5045654;28;20064;-78
2023/08/12 08:34:44;;;;;;;15.73;10.73;;;23.40;99.90;;;;;;5066336;28;20036;-79
2023/08/12 08:37:10;;;;;;;15.32;11.82;;;23.70;99.90;;;;;;5042717;28;20032;-80
2023/08/12 08:39:36;;;;;;;15.15;11.18;;;23.70;99.90;;;;;;5058908;28;20040;-79
2023/08/12 08:42:05;;;;;;;19.38;11.50;;;23.80;99.90;;;;;;5041636;28;20036;-80
2023/08/12 08:44:33;;;;;;;17.08;10.77;;;23.60;99.90;;;;;;5055494;28;20036;-79
2023/08/12 08:47:00;;;;;;;17.17;12.65;;;23.60;99.90;;;;;;5063294;28;20068;-79
2023/08/12 08:49:28;;;;;;;17.35;13.05;;;23.40;99.90;;;;;;5057237;28;20250;-80
2023/08/12 08:51:54;;;;;;;17.15;11.90;;;23.70;99.90;;;;;;5069305;28;20117;-79
2023/08/12 08:54:20;;;;;;;19.60;13.23;;;23.60;99.90;;;;;;5061218;28;20040;-79
2023/08/12 08:56:47;;;;;;;17.95;11.93;;;23.40;99.90;;;;;;5059266;28;20070;-79
2023/08/12 08:59:13;;;;;;;16.42;12.05;;;23.20;99.90;;;;;;5072643;28;20099;-80
2023/08/12 09:01:40;;;;;;;15.63;11.95;;;23.50;99.90;;;;;;5061186;28;20033;-79
2023/08/12 09:04:07;;;;;;;16.13;12.57;;;23.40;99.90;;;;;;5044473;28;20036;-80
2023/08/12 09:06:35;;;;;;;13.57;11.15;;;23.80;99.90;;;;;;5062704;28;20056;-80
2023/08/12 09:09:02;;;;;;;13.75;10.70;;;23.70;99.90;;;;;;5077540;28;20052;-79
2023/08/12 09:11:29;;;;;;;13.55;12.13;;;23.70;99.90;;;;;;5079728;28;20041;-80
2023/08/12 09:13:55;;;;;;;21.45;15.13;;;23.70;99.90;;;;;;5094901;28;20028;-79
2023/08/12 09:16:20;;;;;;;18.20;13.93;;;23.30;99.90;;;;;;5076795;28;20043;-79
2023/08/12 09:18:46;;;;;;;17.05;13.25;;;23.60;99.90;;;;;;5066053;28;20077;-80
2023/08/12 09:21:12;;;;;;;14.88;12.88;;;23.50;99.90;;;;;;5076140;28;20044;-81
2023/08/12 09:23:39;;;;;;;21.30;15.45;;;23.20;99.90;;;;;;5072310;28;20063;-80
2023/08/12 09:26:16;;;;;;;22.50;15.55;;;23.20;99.90;;;;;;5068608;28;20089;-78
2023/08/12 09:28:43;;;;;;;21.33;14.18;;;23.30;99.90;;;;;;5102032;28;20051;-80
2023/08/12 09:31:24;;;;;;;18.35;12.50;;;23.60;99.90;;;;;;5089728;28;20036;-81
2023/08/12 09:33:50;;;;;;;20.33;14.63;;;23.20;99.90;;;;;;5100511;28;20039;-78
2023/08/12 09:36:17;;;;;;;17.85;14.23;;;23.70;99.90;;;;;;5074143;28;20031;-79
2023/08/12 09:38:43;;;;;;;18.20;14.27;;;23.30;99.90;;;;;;5080233;28;20166;-79
2023/08/12 09:41:09;;;;;;;19.90;15.52;;;22.90;99.90;;;;;;5092344;28;20099;-79
2023/08/12 09:43:35;;;;;;;20.05;15.00;;;22.90;99.90;;;;;;5096115;28;20105;-79
2023/08/12 09:46:02;;;;;;;21.15;16.33;;;23.00;99.90;;;;;;5061993;28;20054;-79
2023/08/12 09:48:28;;;;;;;21.48;16.58;;;23.50;99.90;;;;;;5088812;28;20310;-76
2023/08/12 09:50:54;;;;;;;17.45;13.73;;;23.10;99.90;;;;;;5084848;28;20031;-78
2023/08/12 09:53:22;;;;;;;21.10;15.20;;;23.30;99.90;;;;;;5084717;28;20040;-78
2023/08/12 09:55:49;;;;;;;24.55;15.88;;;23.80;99.90;;;;;;5099017;28;20374;-78
2023/08/12 09:58:17;;;;;;;18.50;15.98;;;23.30;99.90;;;;;;5081568;28;20060;-75
2023/08/12 10:00:45;;;;;;;19.52;15.75;;;22.90;99.90;;;;;;5081520;28;20025;-74
2023/08/12 10:03:15;;;;;;;20.50;16.27;;;23.40;99.90;;;;;;5083550;28;20353;-74
2023/08/12 10:05:42;;;;;;;20.10;16.15;;;23.60;99.90;;;;;;5056820;28;20555;-74
2023/08/12 10:08:09;;;;;;;22.05;16.75;;;23.00;99.90;;;;;;5083120;28;20031;-73
2023/08/12 10:10:36;;;;;;;18.65;16.20;;;23.40;99.90;;;;;;5064900;28;20051;-73
2023/08/12 10:13:02;;;;;;;16.33;13.70;;;23.30;99.90;;;;;;5063672;28;20517;-77
2023/08/12 10:15:28;;;;;;;14.77;13.10;;;23.00;99.90;;;;;;5079388;28;20033;-76
2023/08/12 10:17:55;;;;;;;18.60;13.55;;;23.00;99.90;;;;;;5077829;28;20032;-76
2023/08/12 10:20:23;;;;;;;16.83;12.45;;;23.80;99.90;;;;;;5080023;28;20045;-76
2023/08/12 10:22:50;;;;;;;16.30;12.90;;;23.20;99.90;;;;;;5081193;28;20052;-76
2023/08/12 10:25:18;;;;;;;18.67;14.68;;;23.80;99.90;;;;;;5076587;28;20082;-76
2023/08/12 10:27:44;;;;;;;17.10;13.70;;;23.90;99.90;;;;;;5061526;28;20052;-75
2023/08/12 10:30:12;;;;;;;16.98;12.70;;;23.50;99.90;;;;;;5080561;28;20099;-75
2023/08/12 10:32:39;;;;;;;14.52;12.02;;;23.90;99.90;;;;;;5064126;28;20029;-75
2023/08/12 10:35:06;;;;;;;12.80;11.35;;;23.50;99.90;;;;;;5060181;28;20323;-75
2023/08/12 10:37:33;;;;;;;14.68;10.73;;;24.10;99.90;;;;;;5044922;28;20040;-74
2023/08/12 10:40:03;;;;;;;10.80;9.65;;;23.10;99.90;;;;;;5043754;28;20070;-76
2023/08/12 10:42:44;;;;;;;10.48;9.20;;;23.30;99.90;;;;;;5073908;28;20247;-75
2023/08/12 10:45:11;;;;;;;9.35;7.85;;;23.70;99.90;;;;;;5079245;28;20067;-75
2023/08/12 10:48:01;;;;;;;11.73;9.63;;;23.00;99.90;;;;;;5073380;28;20041;-75
2023/08/12 10:50:27;;;;;;;9.23;8.20;;;23.80;99.90;;;;;;5052161;28;20087;-74
2023/08/12 10:52:54;;;;;;;8.32;7.32;;;23.90;99.90;;;;;;5053578;28;20032;-74
2023/08/12 10:55:23;;;;;;;7.80;5.78;;;23.10;99.90;;;;;;5063741;28;20040;-74
2023/08/12 10:57:54;;;;;;;8.65;5.55;;;22.70;99.90;;;;;;5074103;28;20037;-74
2023/08/12 11:00:25;;;;;;;7.05;4.95;;;22.80;99.90;;;;;;5058650;28;20207;-74
2023/08/12 11:02:53;;;;;;;6.43;4.68;;;22.90;99.90;;;;;;5060314;28;20099;-73
2023/08/12 11:05:20;;;;;;;4.90;4.07;;;24.10;99.90;;;;;;5059975;28;20045;-74
2023/08/12 11:08:03;;;;;;;5.97;4.38;;;23.80;99.90;;;;;;5048743;28;20063;-74
2023/08/12 11:10:34;;;;;;;5.50;3.88;;;23.40;99.90;;;;;;5078253;28;20040;-74
2023/08/12 11:13:00;;;;;;;4.40;3.67;;;23.60;99.90;;;;;;5099112;28;20339;-74
2023/08/12 11:15:43;;;;;;;4.75;3.63;;;23.40;99.90;;;;;;5098224;28;20107;-74
2023/08/12 11:18:10;;;;;;;4.00;3.50;;;22.70;99.90;;;;;;5089556;28;20100;-74
2023/08/12 11:20:37;;;;;;;6.72;3.65;;;23.90;99.90;;;;;;5087192;28;20120;-74
2023/08/12 11:23:04;;;;;;;5.47;3.60;;;24.00;99.90;;;;;;5079996;28;20052;-74
2023/08/12 11:25:31;;;;;;;5.60;4.13;;;23.90;99.90;;;;;;5063187;28;20043;-74
2023/08/12 11:27:57;;;;;;;7.18;4.10;;;23.10;99.90;;;;;;5083819;28;20048;-73
2023/08/12 11:30:23;;;;;;;5.78;4.18;;;23.00;99.90;;;;;;5073176;28;20040;-74
2023/08/12 11:32:53;;;;;;;4.40;4.00;;;22.80;99.90;;;;;;5079879;28;20024;-73
2023/08/12 11:35:21;;;;;;;3.63;3.30;;;23.70;99.90;;;;;;5081457;28;20039;-73
2023/08/12 11:37:55;;;;;;;5.22;3.72;;;22.70;99.90;;;;;;5063082;28;20029;-73
2023/08/12 11:40:22;;;;;;;6.32;4.10;;;24.00;99.90;;;;;;5064117;28;20110;-73
2023/08/12 11:42:50;;;;;;;4.53;3.63;;;23.90;99.90;;;;;;5093391;28;20039;-75
2023/08/12 11:45:20;;;;;;;4.65;3.28;;;23.10;99.90;;;;;;5062666;28;20079;-74
2023/08/12 11:47:52;;;;;;;3.58;2.95;;;23.70;99.90;;;;;;5080014;28;20107;-74
2023/08/12 11:50:20;;;;;;;5.65;3.45;;;23.30;99.90;;;;;;5079089;28;20039;-75
2023/08/12 11:52:46;;;;;;;5.50;3.50;;;23.40;99.90;;;;;;5077868;28;20053;-74
2023/08/12 11:55:13;;;;;;;3.40;3.10;;;22.90;99.90;;;;;;5099410;28;20032;-74
2023/08/12 11:57:43;;;;;;;4.82;2.90;;;24.10;99.90;;;;;;5064517;28;20032;-73
2023/08/12 12:00:14;;;;;;;4.75;3.30;;;23.40;99.90;;;;;;5065758;28;20191;-73
2023/08/12 12:02:51;;;;;;;3.40;3.10;;;23.20;99.90;;;;;;5095984;28;20265;-73
2023/08/12 12:05:20;;;;;;;3.90;3.33;;;23.00;99.90;;;;;;5076924;28;20098;-75
2023/08/12 12:07:49;;;;;;;3.55;2.13;;;24.20;99.90;;;;;;5082961;28;20036;-74
2023/08/12 12:10:27;;;;;;;2.25;2.05;;;22.90;99.90;;;;;;5095342;28;20118;-74
2023/08/12 12:12:55;;;;;;;2.42;2.10;;;23.50;99.90;;;;;;5089424;28;20038;-73
2023/08/12 12:15:20;;;;;;;1.50;1.40;;;23.10;99.90;;;;;;5099065;28;20027;-73
2023/08/12 12:17:48;;;;;;;6.15;1.40;;;22.90;99.90;;;;;;5085161;28;20050;-73
2023/08/12 12:20:14;;;;;;;1.33;1.10;;;23.50;99.90;;;;;;5085001;28;20032;-71
2023/08/12 12:22:45;;;;;;;1.20;1.00;;;23.80;99.90;;;;;;5061888;28;20078;-71
2023/08/12 12:25:13;;;;;;;2.28;1.50;;;22.20;99.90;;;;;;5095974;28;20027;-71
2023/08/12 12:27:40;;;;;;;2.50;1.70;;;23.20;99.90;;;;;;5102263;28;20035;-71
2023/08/12 12:30:11;;;;;;;3.08;2.13;;;23.00;99.90;;;;;;5095934;28;20037;-73
2023/08/12 12:32:37;;;;;;;2.95;1.98;;;22.20;99.90;;;;;;5102068;28;20027;-72
2023/08/12 12:35:04;;;;;;;4.53;2.25;;;21.40;99.90;;;;;;5102854;28;20032;-73
2023/08/12 12:37:30;;;;;;;4.72;2.28;;;22.50;99.90;;;;;;5102519;28;20039;-73
2023/08/12 12:39:56;;;;;;;3.05;2.17;;;21.20;99.90;;;;;;5071328;28;20035;-73